EWG471 EDDF-EDDL
Flight info
| Callsign | EWG471 |
|---|---|
| Flight time | 0h 28m |
| Altitude | 18000 |
| Route | MARUN6E/07C MARUN Y152 ARPEG Z850 ADEMI T854 DOMUX DOMUX1A |
| Aircraft | A320/M-SDE3FGHIRWY/LB1 |
Departure
| Time | 2026-05-01 12:18 |
|---|---|
| Airport | Frankfurt Main Airport (EDDF) |
Arrival
| Time | 2026-05-01 12:46 |
|---|---|
| Airport | Düsseldorf Airport (EDDL) |
| Time | Latitude | Longitude | Altitude | Speed | Heading |
|---|---|---|---|---|---|
| 2026-05-01 11:38 | 50.04698 | 8.57094 | 383 ft | 0 kts | 115° |
| 2026-05-01 12:05 | 50.04711 | 8.57050 | 356 ft | 3 kts | 116° |
| 2026-05-01 12:05 | 50.04719 | 8.57025 | 359 ft | 3 kts | 129° |
| 2026-05-01 12:06 | 50.04733 | 8.57007 | 360 ft | 3 kts | 168° |
| 2026-05-01 12:06 | 50.04752 | 8.57007 | 356 ft | 3 kts | 198° |
| 2026-05-01 12:06 | 50.04770 | 8.57017 | 361 ft | 2 kts | 205° |
| 2026-05-01 12:06 | 50.04774 | 8.57020 | 358 ft | 0 kts | 205° |
| 2026-05-01 12:11 | 50.04773 | 8.57020 | 356 ft | 1 kts | 204° |
| 2026-05-01 12:12 | 50.04738 | 8.56995 | 359 ft | 10 kts | 205° |
| 2026-05-01 12:12 | 50.04658 | 8.56938 | 361 ft | 13 kts | 205° |
| 2026-05-01 12:12 | 50.04580 | 8.56901 | 357 ft | 10 kts | 193° |
| 2026-05-01 12:12 | 50.04528 | 8.56882 | 359 ft | 7 kts | 193° |
| 2026-05-01 12:13 | 50.04480 | 8.56865 | 359 ft | 10 kts | 193° |
| 2026-05-01 12:13 | 50.04392 | 8.56841 | 360 ft | 16 kts | 188° |
| 2026-05-01 12:13 | 50.04268 | 8.56804 | 361 ft | 18 kts | 199° |
| 2026-05-01 12:13 | 50.04212 | 8.56637 | 357 ft | 18 kts | 252° |
| 2026-05-01 12:14 | 50.04161 | 8.56422 | 358 ft | 25 kts | 249° |
| 2026-05-01 12:14 | 50.04091 | 8.56130 | 357 ft | 32 kts | 250° |
| 2026-05-01 12:14 | 50.04011 | 8.55798 | 355 ft | 34 kts | 249° |
| 2026-05-01 12:14 | 50.03926 | 8.55444 | 351 ft | 35 kts | 250° |
| 2026-05-01 12:15 | 50.03840 | 8.55081 | 351 ft | 37 kts | 250° |
| 2026-05-01 12:15 | 50.03748 | 8.54696 | 353 ft | 39 kts | 250° |
| 2026-05-01 12:15 | 50.03651 | 8.54295 | 347 ft | 37 kts | 249° |
| 2026-05-01 12:15 | 50.03564 | 8.53929 | 341 ft | 32 kts | 250° |
| 2026-05-01 12:16 | 50.03490 | 8.53617 | 334 ft | 30 kts | 249° |
| 2026-05-01 12:16 | 50.03423 | 8.53343 | 336 ft | 17 kts | 238° |
| 2026-05-01 12:16 | 50.03341 | 8.53367 | 334 ft | 14 kts | 135° |
| 2026-05-01 12:16 | 50.03288 | 8.53495 | 335 ft | 15 kts | 109° |
| 2026-05-01 12:17 | 50.03300 | 8.53625 | 337 ft | 0 kts | 69° |
| 2026-05-01 12:17 | 50.03316 | 8.53689 | 336 ft | 32 kts | 69° |
| 2026-05-01 12:17 | 50.03504 | 8.54480 | 349 ft | 120 kts | 70° |
| 2026-05-01 12:18 | 50.03878 | 8.56015 | 493 ft | 172 kts | 70° |
| 2026-05-01 12:18 | 50.04308 | 8.57763 | 1493 ft | 174 kts | 72° |
| 2026-05-01 12:18 | 50.04746 | 8.59564 | 2482 ft | 187 kts | 72° |
| 2026-05-01 12:18 | 50.05206 | 8.61543 | 2954 ft | 208 kts | 70° |
| 2026-05-01 12:19 | 50.06108 | 8.63443 | 3523 ft | 230 kts | 37° |
| 2026-05-01 12:19 | 50.07625 | 8.64154 | 4558 ft | 230 kts | 7° |
| 2026-05-01 12:19 | 50.09252 | 8.64130 | 5378 ft | 239 kts | 357° |
| 2026-05-01 12:19 | 50.10944 | 8.63870 | 6045 ft | 252 kts | 355° |
| 2026-05-01 12:20 | 50.12772 | 8.63561 | 6497 ft | 276 kts | 356° |
| 2026-05-01 12:20 | 50.14717 | 8.63273 | 7103 ft | 290 kts | 357° |
| 2026-05-01 12:20 | 50.16745 | 8.63027 | 7963 ft | 294 kts | 358° |
| 2026-05-01 12:20 | 50.18796 | 8.62827 | 8852 ft | 298 kts | 359° |
| 2026-05-01 12:21 | 50.20878 | 8.62660 | 9761 ft | 302 kts | 359° |
| 2026-05-01 12:21 | 50.22990 | 8.62512 | 10600 ft | 308 kts | 360° |
| 2026-05-01 12:21 | 50.25213 | 8.62369 | 10919 ft | 331 kts | 360° |
| 2026-05-01 12:21 | 50.27582 | 8.62221 | 11369 ft | 347 kts | 360° |
| 2026-05-01 12:22 | 50.30013 | 8.62064 | 12103 ft | 353 kts | 360° |
| 2026-05-01 12:22 | 50.31678 | 8.61955 | 12648 ft | 355 kts | 360° |
| 2026-05-01 12:22 | 50.34963 | 8.61795 | 13731 ft | 358 kts | 1° |
| 2026-05-01 12:22 | 50.37466 | 8.61776 | 14478 ft | 361 kts | 2° |
| 2026-05-01 12:23 | 50.39988 | 8.61808 | 15157 ft | 364 kts | 2° |
| 2026-05-01 12:23 | 50.42533 | 8.61849 | 15855 ft | 367 kts | 2° |
| 2026-05-01 12:23 | 50.45097 | 8.61956 | 16533 ft | 369 kts | 7° |
| 2026-05-01 12:23 | 50.47669 | 8.62326 | 17205 ft | 373 kts | 7° |
| 2026-05-01 12:24 | 50.50272 | 8.62695 | 17876 ft | 376 kts | 7° |
| 2026-05-01 12:24 | 50.52893 | 8.63062 | 18260 ft | 379 kts | 7° |
| 2026-05-01 12:24 | 50.55527 | 8.63431 | 18337 ft | 378 kts | 7° |
| 2026-05-01 12:24 | 50.58145 | 8.63798 | 18361 ft | 377 kts | 7° |
| 2026-05-01 12:25 | 50.60728 | 8.64161 | 18359 ft | 377 kts | 7° |
| 2026-05-01 12:25 | 50.65948 | 8.64902 | 18361 ft | 377 kts | 7° |
| 2026-05-01 12:25 | 50.68563 | 8.65273 | 18361 ft | 377 kts | 7° |
| 2026-05-01 12:26 | 50.71173 | 8.65647 | 18358 ft | 377 kts | 7° |
| 2026-05-01 12:26 | 50.76397 | 8.66383 | 18362 ft | 377 kts | 6° |
| 2026-05-01 12:26 | 50.79026 | 8.66213 | 18362 ft | 380 kts | 352° |
| 2026-05-01 12:27 | 50.81571 | 8.65073 | 18361 ft | 382 kts | 338° |
| 2026-05-01 12:27 | 50.85254 | 8.61257 | 18363 ft | 384 kts | 316° |
| 2026-05-01 12:28 | 50.88753 | 8.54866 | 18357 ft | 384 kts | 310° |
| 2026-05-01 12:28 | 50.90485 | 8.51630 | 18357 ft | 384 kts | 310° |
| 2026-05-01 12:28 | 50.93948 | 8.45153 | 18336 ft | 386 kts | 311° |
| 2026-05-01 12:29 | 50.95685 | 8.41897 | 18328 ft | 387 kts | 311° |
| 2026-05-01 12:29 | 50.97424 | 8.38627 | 18328 ft | 389 kts | 311° |
| 2026-05-01 12:29 | 51.00978 | 8.32141 | 18330 ft | 390 kts | 317° |
| 2026-05-01 12:30 | 51.05413 | 8.27309 | 18346 ft | 386 kts | 332° |
| 2026-05-01 12:30 | 51.07759 | 8.25229 | 18349 ft | 386 kts | 332° |
| 2026-05-01 12:30 | 51.10104 | 8.23143 | 18352 ft | 386 kts | 332° |
| 2026-05-01 12:31 | 51.12446 | 8.21055 | 18349 ft | 386 kts | 332° |
| 2026-05-01 12:31 | 51.14792 | 8.18958 | 18343 ft | 387 kts | 332° |
| 2026-05-01 12:31 | 51.17141 | 8.16861 | 18309 ft | 386 kts | 332° |
| 2026-05-01 12:31 | 51.19459 | 8.14788 | 18047 ft | 377 kts | 332° |
| 2026-05-01 12:32 | 51.21691 | 8.12792 | 17784 ft | 369 kts | 332° |
| 2026-05-01 12:32 | 51.26113 | 8.08833 | 17270 ft | 363 kts | 332° |
| 2026-05-01 12:32 | 51.28310 | 8.06859 | 17015 ft | 363 kts | 332° |
| 2026-05-01 12:33 | 51.30512 | 8.04879 | 16752 ft | 362 kts | 332° |
| 2026-05-01 12:33 | 51.32695 | 8.02918 | 16494 ft | 359 kts | 332° |
| 2026-05-01 12:33 | 51.34871 | 8.00960 | 16240 ft | 358 kts | 332° |
| 2026-05-01 12:33 | 51.37029 | 7.99018 | 15990 ft | 354 kts | 332° |
| 2026-05-01 12:34 | 51.39169 | 7.97084 | 15609 ft | 352 kts | 332° |
| 2026-05-01 12:34 | 51.41298 | 7.95155 | 15190 ft | 352 kts | 332° |
| 2026-05-01 12:34 | 51.43427 | 7.93201 | 14707 ft | 354 kts | 328° |
| 2026-05-01 12:34 | 51.45268 | 7.90596 | 14230 ft | 356 kts | 308° |
| 2026-05-01 12:35 | 51.46483 | 7.87163 | 13693 ft | 355 kts | 288° |
| 2026-05-01 12:35 | 51.46941 | 7.83317 | 13207 ft | 350 kts | 268° |
| 2026-05-01 12:35 | 51.46625 | 7.79491 | 12723 ft | 344 kts | 251° |
| 2026-05-01 12:35 | 51.45967 | 7.75808 | 12245 ft | 342 kts | 251° |
| 2026-05-01 12:36 | 51.45323 | 7.72204 | 11774 ft | 331 kts | 251° |
| 2026-05-01 12:36 | 51.44694 | 7.68690 | 11363 ft | 327 kts | 251° |
| 2026-05-01 12:36 | 51.44063 | 7.65185 | 10906 ft | 327 kts | 251° |
| 2026-05-01 12:36 | 51.43425 | 7.61658 | 10205 ft | 328 kts | 251° |
| 2026-05-01 12:37 | 51.42813 | 7.58262 | 10015 ft | 306 kts | 250° |
| 2026-05-01 12:37 | 51.42231 | 7.55016 | 9812 ft | 299 kts | 251° |
| 2026-05-01 12:37 | 51.41898 | 7.51735 | 9402 ft | 301 kts | 263° |
| 2026-05-01 12:37 | 51.41779 | 7.48405 | 8910 ft | 294 kts | 263° |
| 2026-05-01 12:38 | 51.41669 | 7.45245 | 8765 ft | 274 kts | 263° |
| 2026-05-01 12:38 | 51.41565 | 7.42266 | 8360 ft | 268 kts | 263° |
| 2026-05-01 12:38 | 51.41451 | 7.39284 | 7651 ft | 274 kts | 263° |
| 2026-05-01 12:38 | 51.41330 | 7.36213 | 6993 ft | 276 kts | 263° |
| 2026-05-01 12:39 | 51.41210 | 7.33136 | 6370 ft | 275 kts | 263° |
| 2026-05-01 12:39 | 51.41095 | 7.30115 | 5852 ft | 268 kts | 262° |
| 2026-05-01 12:39 | 51.40981 | 7.27178 | 5367 ft | 261 kts | 262° |
| 2026-05-01 12:39 | 51.40869 | 7.24310 | 4892 ft | 255 kts | 262° |
| 2026-05-01 12:40 | 51.40760 | 7.21499 | 4423 ft | 250 kts | 262° |
| 2026-05-01 12:40 | 51.40653 | 7.18771 | 4089 ft | 239 kts | 262° |
| 2026-05-01 12:40 | 51.40546 | 7.16115 | 4046 ft | 240 kts | 261° |
| 2026-05-01 12:40 | 51.40435 | 7.13443 | 3967 ft | 241 kts | 262° |
| 2026-05-01 12:41 | 51.40325 | 7.10769 | 3854 ft | 240 kts | 262° |
| 2026-05-01 12:41 | 51.40217 | 7.08121 | 3746 ft | 235 kts | 262° |
| 2026-05-01 12:41 | 51.40115 | 7.05571 | 3646 ft | 225 kts | 262° |
| 2026-05-01 12:41 | 51.40017 | 7.03127 | 3552 ft | 215 kts | 261° |
| 2026-05-01 12:42 | 51.39821 | 7.00827 | 3464 ft | 201 kts | 247° |
| 2026-05-01 12:42 | 51.39238 | 6.98980 | 3294 ft | 186 kts | 227° |
| 2026-05-01 12:42 | 51.38468 | 6.97353 | 3064 ft | 181 kts | 227° |
| 2026-05-01 12:42 | 51.37708 | 6.95745 | 2825 ft | 181 kts | 227° |
| 2026-05-01 12:43 | 51.36954 | 6.94149 | 2584 ft | 179 kts | 226° |
| 2026-05-01 12:43 | 51.36223 | 6.92601 | 2356 ft | 169 kts | 226° |
| 2026-05-01 12:43 | 51.35542 | 6.91159 | 2150 ft | 158 kts | 225° |
| 2026-05-01 12:43 | 51.34909 | 6.89820 | 1937 ft | 146 kts | 225° |
| 2026-05-01 12:44 | 51.34297 | 6.88534 | 1736 ft | 145 kts | 226° |
| 2026-05-01 12:44 | 51.33695 | 6.87266 | 1552 ft | 141 kts | 225° |
| 2026-05-01 12:44 | 51.32503 | 6.84794 | 1152 ft | 141 kts | 226° |
| 2026-05-01 12:45 | 51.31336 | 6.82277 | 786 ft | 141 kts | 228° |
| 2026-05-01 12:45 | 51.30741 | 6.81036 | 574 ft | 140 kts | 225° |
| 2026-05-01 12:45 | 51.30152 | 6.79796 | 386 ft | 140 kts | 224° |
| 2026-05-01 12:46 | 51.29576 | 6.78587 | 222 ft | 136 kts | 226° |
| 2026-05-01 12:46 | 51.29017 | 6.77418 | 115 ft | 119 kts | 229° |
| 2026-05-01 12:46 | 51.28699 | 6.76760 | 118 ft | 31 kts | 235° |
| 2026-05-01 12:46 | 51.28648 | 6.76647 | 117 ft | 13 kts | 225° |
| 2026-05-01 12:47 | 51.28577 | 6.76685 | 118 ft | 12 kts | 143° |
| 2026-05-01 12:47 | 51.28507 | 6.76763 | 117 ft | 10 kts | 153° |
| 2026-05-01 12:47 | 51.28452 | 6.76699 | 116 ft | 11 kts | 232° |
| 2026-05-01 12:47 | 51.28394 | 6.76690 | 116 ft | 9 kts | 116° |
| 2026-05-01 12:48 | 51.28354 | 6.76749 | 118 ft | 9 kts | 147° |
| 2026-05-01 12:48 | 51.28297 | 6.76795 | 116 ft | 9 kts | 195° |
| 2026-05-01 12:48 | 51.28261 | 6.76737 | 116 ft | 2 kts | 224° |
| 2026-05-01 12:48 | 51.28256 | 6.76731 | 116 ft | 0 kts | 225° |